Time;durP1;ratioP1;P1;durP2;ratioP2;P2;SDS_P1;SDS_P2;PMS_P1;PMS_P2;Temp;Humidity;BMP_temperature;BMP_pressure;BME280_temperature;BME280_humidity;BME280_pressure;Samples;Min_cycle;Max_cycle;Signal;HPM_P1;HPM_P2
2023/04/20 00:02:17;;;;;;;123.75;24.05;;;;;;;;;;5089330;28;20039;-48
2023/04/20 00:04:44;;;;;;;146.52;26.80;;;;;;;;;;5083833;28;20067;-46
2023/04/20 00:07:11;;;;;;;150.40;29.40;;;;;;;;;;5079858;28;20557;-46
2023/04/20 00:09:38;;;;;;;164.25;32.78;;;;;;;;;;5075111;28;20021;-46
2023/04/20 00:12:05;;;;;;;163.25;33.95;;;;;;;;;;5073823;28;20029;-48
2023/04/20 00:14:32;;;;;;;186.40;41.85;;;;;;;;;;5074885;28;20047;-46
2023/04/20 00:16:59;;;;;;;182.05;46.00;;;;;;;;;;5086752;28;20112;-47
2023/04/20 00:19:31;;;;;;;178.40;45.65;;;;;;;;;;5073224;28;20061;-46
2023/04/20 00:21:59;;;;;;;199.13;49.20;;;;;;;;;;5073069;28;20062;-48
2023/04/20 00:24:26;;;;;;;172.88;46.10;;;;;;;;;;5073716;28;20028;-46
2023/04/20 00:26:53;;;;;;;176.85;45.38;;;;;;;;;;5083596;28;20052;-47
2023/04/20 00:29:21;;;;;;;169.77;44.15;;;;;;;;;;5073285;28;20109;-45
2023/04/20 00:31:48;;;;;;;178.32;41.17;;;;;;;;;;5073064;28;20371;-46
2023/04/20 00:34:15;;;;;;;154.10;39.75;;;;;;;;;;5073605;28;20033;-47
2023/04/20 00:36:42;;;;;;;159.32;40.28;;;;;;;;;;5076315;28;20221;-49
2023/04/20 00:39:09;;;;;;;147.82;36.83;;;;;;;;;;5080512;28;20057;-47
2023/04/20 00:41:37;;;;;;;142.65;37.38;;;;;;;;;;5059845;28;20052;-47
2023/04/20 00:44:05;;;;;;;149.77;36.15;;;;;;;;;;5062453;28;20367;-46
2023/04/20 00:46:32;;;;;;;150.82;37.25;;;;;;;;;;5053013;28;20041;-46
2023/04/20 00:48:59;;;;;;;142.13;36.55;;;;;;;;;;5058406;28;20481;-48
2023/04/20 00:51:27;;;;;;;129.27;34.97;;;;;;;;;;5072363;28;20032;-48
2023/04/20 00:53:54;;;;;;;139.07;36.17;;;;;;;;;;5072815;28;20068;-46
2023/04/20 00:56:21;;;;;;;152.20;34.97;;;;;;;;;;5073124;28;20033;-46
2023/04/20 00:58:48;;;;;;;154.95;34.55;;;;;;;;;;5072524;28;20514;-46
2023/04/20 01:01:19;;;;;;;149.27;34.25;;;;;;;;;;5072352;28;20467;-46
2023/04/20 01:03:46;;;;;;;140.88;34.67;;;;;;;;;;5072834;28;20609;-47
2023/04/20 01:06:15;;;;;;;141.15;33.88;;;;;;;;;;5072889;28;20036;-47
2023/04/20 01:08:51;;;;;;;145.38;32.92;;;;;;;;;;5054098;28;20067;-47
2023/04/20 01:11:19;;;;;;;133.48;31.45;;;;;;;;;;5060669;28;20029;-47
2023/04/20 01:13:46;;;;;;;137.50;32.42;;;;;;;;;;5052400;28;20049;-46
2023/04/20 01:16:13;;;;;;;150.05;32.78;;;;;;;;;;5053262;28;20029;-47
2023/04/20 01:18:47;;;;;;;123.30;30.35;;;;;;;;;;5053404;28;20106;-46
2023/04/20 01:21:16;;;;;;;152.63;32.00;;;;;;;;;;5064103;28;20024;-49
2023/04/20 01:23:43;;;;;;;143.13;31.55;;;;;;;;;;5072364;28;20047;-46
2023/04/20 01:26:12;;;;;;;122.40;28.73;;;;;;;;;;5071568;28;20113;-47
2023/04/20 01:28:39;;;;;;;127.72;30.77;;;;;;;;;;5062936;28;20127;-48
2023/04/20 01:31:07;;;;;;;127.03;29.45;;;;;;;;;;5062818;28;20526;-47
2023/04/20 01:33:35;;;;;;;132.73;29.92;;;;;;;;;;5061700;28;20360;-47
2023/04/20 01:36:02;;;;;;;120.97;28.58;;;;;;;;;;5063788;28;20036;-49
2023/04/20 01:38:33;;;;;;;130.35;28.25;;;;;;;;;;5052080;28;20033;-47
2023/04/20 01:41:01;;;;;;;116.82;26.27;;;;;;;;;;5052109;28;20058;-47
2023/04/20 01:43:28;;;;;;;119.18;26.25;;;;;;;;;;5052027;28;20082;-47
2023/04/20 01:45:55;;;;;;;108.63;26.42;;;;;;;;;;5051990;28;20028;-47
2023/04/20 01:48:22;;;;;;;109.20;24.88;;;;;;;;;;5059873;28;20032;-47
2023/04/20 01:50:52;;;;;;;116.07;24.90;;;;;;;;;;5052247;28;20035;-47
2023/04/20 01:53:19;;;;;;;98.97;24.13;;;;;;;;;;5051939;28;20491;-47
2023/04/20 01:55:47;;;;;;;89.20;22.35;;;;;;;;;;5052265;28;20084;-46
2023/04/20 01:58:14;;;;;;;98.20;24.58;;;;;;;;;;5052234;28;20437;-46
2023/04/20 02:00:41;;;;;;;93.47;24.20;;;;;;;;;;5052262;28;20452;-47
2023/04/20 02:03:09;;;;;;;90.45;22.55;;;;;;;;;;5052110;28;20049;-47
2023/04/20 02:05:36;;;;;;;88.65;21.80;;;;;;;;;;5051806;28;20756;-47
2023/04/20 02:08:04;;;;;;;88.43;22.08;;;;;;;;;;5052083;28;20033;-46
2023/04/20 02:10:31;;;;;;;92.50;23.15;;;;;;;;;;5052145;28;20123;-47
2023/04/20 02:12:58;;;;;;;90.53;22.05;;;;;;;;;;5051893;28;20043;-47
2023/04/20 02:15:25;;;;;;;100.28;22.52;;;;;;;;;;5051956;28;20079;-47
2023/04/20 02:17:52;;;;;;;80.22;20.92;;;;;;;;;;5051720;28;20032;-49
2023/04/20 02:20:19;;;;;;;85.05;21.45;;;;;;;;;;5051936;28;20029;-47
2023/04/20 02:22:46;;;;;;;90.18;19.80;;;;;;;;;;5051534;28;20032;-47
2023/04/20 02:25:14;;;;;;;77.10;20.17;;;;;;;;;;5051744;28;20032;-46
2023/04/20 02:27:41;;;;;;;79.22;19.80;;;;;;;;;;5051554;28;20490;-47
2023/04/20 02:30:09;;;;;;;73.00;19.60;;;;;;;;;;5051681;28;20052;-46
2023/04/20 02:32:36;;;;;;;70.30;19.08;;;;;;;;;;5051429;28;20029;-46
2023/04/20 02:35:03;;;;;;;69.43;18.80;;;;;;;;;;5051691;28;20033;-47
2023/04/20 02:37:31;;;;;;;65.70;18.58;;;;;;;;;;5051666;28;20029;-46
2023/04/20 02:39:58;;;;;;;68.47;17.30;;;;;;;;;;5051418;28;20052;-48
2023/04/20 02:42:25;;;;;;;62.35;17.17;;;;;;;;;;5051222;28;20032;-47
2023/04/20 02:44:52;;;;;;;61.17;17.30;;;;;;;;;;5051574;28;20037;-46
2023/04/20 02:47:19;;;;;;;64.25;16.77;;;;;;;;;;5051480;28;20053;-46
2023/04/20 02:49:46;;;;;;;68.05;17.50;;;;;;;;;;5051355;28;20029;-47
2023/04/20 02:52:13;;;;;;;59.83;16.80;;;;;;;;;;5051459;28;20067;-49
2023/04/20 02:54:40;;;;;;;59.35;16.48;;;;;;;;;;5051340;28;20483;-47
2023/04/20 02:57:07;;;;;;;56.50;15.60;;;;;;;;;;5051333;28;20390;-46
2023/04/20 02:59:34;;;;;;;65.25;16.85;;;;;;;;;;5051734;28;20068;-47
2023/04/20 03:02:01;;;;;;;57.88;16.15;;;;;;;;;;5055555;28;20037;-46
2023/04/20 03:04:29;;;;;;;60.90;15.02;;;;;;;;;;5055388;28;20045;-47
2023/04/20 03:06:57;;;;;;;57.33;15.45;;;;;;;;;;5055253;28;20048;-46
2023/04/20 03:09:24;;;;;;;58.70;15.35;;;;;;;;;;5055345;28;20119;-47
2023/04/20 03:11:51;;;;;;;52.97;14.30;;;;;;;;;;5055091;28;20037;-47
2023/04/20 03:14:18;;;;;;;50.83;14.45;;;;;;;;;;5055155;28;20029;-46
2023/04/20 03:16:46;;;;;;;49.40;13.95;;;;;;;;;;5055268;28;20100;-48
2023/04/20 03:19:13;;;;;;;50.50;13.85;;;;;;;;;;5054996;28;20041;-48
2023/04/20 03:21:40;;;;;;;51.08;13.48;;;;;;;;;;5055090;28;20033;-47
2023/04/20 03:24:07;;;;;;;52.75;14.35;;;;;;;;;;5055178;28;20029;-48
2023/04/20 03:26:35;;;;;;;46.55;14.00;;;;;;;;;;5055164;28;20036;-47
2023/04/20 03:29:02;;;;;;;44.60;13.20;;;;;;;;;;5055213;28;20102;-47
2023/04/20 03:31:29;;;;;;;48.72;12.98;;;;;;;;;;5054926;28;20025;-47
2023/04/20 03:33:56;;;;;;;51.88;13.35;;;;;;;;;;5054887;28;20031;-47
2023/04/20 03:36:23;;;;;;;52.67;13.32;;;;;;;;;;5054777;28;20040;-47
2023/04/20 03:38:50;;;;;;;46.47;13.32;;;;;;;;;;5054770;28;20035;-47
2023/04/20 03:41:17;;;;;;;42.15;12.35;;;;;;;;;;5054710;28;20025;-46
2023/04/20 03:43:44;;;;;;;43.25;12.20;;;;;;;;;;5054781;28;20043;-48
2023/04/20 03:46:11;;;;;;;44.38;12.50;;;;;;;;;;5054539;28;20387;-47
2023/04/20 03:48:38;;;;;;;40.08;11.88;;;;;;;;;;5054751;28;20052;-46
2023/04/20 03:51:05;;;;;;;39.20;11.05;;;;;;;;;;5054546;28;20028;-46
2023/04/20 03:53:32;;;;;;;38.70;10.93;;;;;;;;;;5054681;28;20033;-48
2023/04/20 03:55:59;;;;;;;42.80;12.05;;;;;;;;;;5054487;28;20075;-46
2023/04/20 03:58:26;;;;;;;38.55;11.52;;;;;;;;;;5054213;28;20037;-47
2023/04/20 04:01:00;;;;;;;34.72;11.07;;;;;;;;;;5054383;28;20037;-46
2023/04/20 04:03:27;;;;;;;39.28;11.27;;;;;;;;;;5054327;28;20043;-46
2023/04/20 04:05:54;;;;;;;37.13;10.43;;;;;;;;;;5054208;28;20046;-46
2023/04/20 04:08:21;;;;;;;28.33;10.07;;;;;;;;;;5054301;28;20526;-46
2023/04/20 04:10:48;;;;;;;39.97;10.43;;;;;;;;;;5053929;28;20074;-46
2023/04/20 04:13:15;;;;;;;32.70;10.88;;;;;;;;;;5054144;28;20402;-46
2023/04/20 04:15:42;;;;;;;35.83;10.77;;;;;;;;;;5054073;28;20032;-45
2023/04/20 04:18:09;;;;;;;31.30;10.00;;;;;;;;;;5054041;28;20037;-46
2023/04/20 04:20:36;;;;;;;35.53;10.13;;;;;;;;;;5053974;28;20036;-47
2023/04/20 04:23:03;;;;;;;31.58;9.68;;;;;;;;;;5053930;28;20617;-47
2023/04/20 04:25:30;;;;;;;32.65;9.38;;;;;;;;;;5054073;28;20079;-47
2023/04/20 04:27:57;;;;;;;27.92;8.95;;;;;;;;;;5053984;28;20025;-46
2023/04/20 04:30:24;;;;;;;31.83;9.85;;;;;;;;;;5054067;28;20040;-46
2023/04/20 04:32:51;;;;;;;29.35;8.95;;;;;;;;;;5053828;28;20025;-46
2023/04/20 04:35:18;;;;;;;30.45;9.60;;;;;;;;;;5053753;28;20037;-47
2023/04/20 04:37:46;;;;;;;27.45;8.32;;;;;;;;;;5035765;28;20454;-46
2023/04/20 04:40:13;;;;;;;28.73;9.32;;;;;;;;;;5053640;28;20048;-46
2023/04/20 04:42:40;;;;;;;30.83;9.35;;;;;;;;;;5053630;28;20025;-46
2023/04/20 04:45:09;;;;;;;27.50;9.23;;;;;;;;;;5053500;28;20083;-46
2023/04/20 04:47:36;;;;;;;24.33;8.45;;;;;;;;;;5053379;28;20128;-47
2023/04/20 04:50:08;;;;;;;30.15;8.73;;;;;;;;;;5053541;28;20551;-45
2023/04/20 04:52:35;;;;;;;26.60;9.60;;;;;;;;;;5053651;28;20725;-46
2023/04/20 04:55:06;;;;;;;28.80;8.98;;;;;;;;;;5053335;28;20391;-46
2023/04/20 04:57:33;;;;;;;26.23;8.90;;;;;;;;;;5053299;28;20075;-45
2023/04/20 05:00:00;;;;;;;24.38;8.52;;;;;;;;;;5053093;28;20487;-48
2023/04/20 05:02:28;;;;;;;20.55;7.65;;;;;;;;;;5053271;28;20103;-46
2023/04/20 05:04:55;;;;;;;26.15;8.18;;;;;;;;;;5053142;28;20122;-46
2023/04/20 05:07:23;;;;;;;24.92;7.53;;;;;;;;;;5053128;28;20028;-46
2023/04/20 05:09:50;;;;;;;23.42;7.82;;;;;;;;;;5053074;28;20041;-48
2023/04/20 05:12:18;;;;;;;25.13;8.25;;;;;;;;;;5052916;28;20505;-45
2023/04/20 05:14:45;;;;;;;23.42;7.70;;;;;;;;;;5052983;28;20025;-46
2023/04/20 05:17:12;;;;;;;21.80;7.47;;;;;;;;;;5053066;28;20048;-46
2023/04/20 05:19:39;;;;;;;23.55;7.70;;;;;;;;;;5053025;28;20399;-46
2023/04/20 05:22:05;;;;;;;21.55;7.57;;;;;;;;;;5052260;28;20029;-46
2023/04/20 05:24:32;;;;;;;20.73;6.93;;;;;;;;;;5052769;28;20032;-45
2023/04/20 05:27:00;;;;;;;22.23;7.30;;;;;;;;;;5052823;28;20099;-46
2023/04/20 05:29:27;;;;;;;22.40;6.80;;;;;;;;;;5053006;28;20432;-47
2023/04/20 05:31:54;;;;;;;22.15;7.13;;;;;;;;;;5052672;28;20041;-46
2023/04/20 05:34:21;;;;;;;23.98;7.50;;;;;;;;;;5052559;28;20118;-45
2023/04/20 05:36:48;;;;;;;22.30;6.90;;;;;;;;;;5052495;28;20024;-46
2023/04/20 05:39:15;;;;;;;17.25;6.80;;;;;;;;;;5052477;28;20037;-45
2023/04/20 05:41:42;;;;;;;18.15;6.65;;;;;;;;;;5052342;28;20035;-47
2023/04/20 05:44:09;;;;;;;17.75;6.53;;;;;;;;;;5052431;28;20087;-46
2023/04/20 05:46:36;;;;;;;17.85;6.50;;;;;;;;;;5052383;28;20037;-45
2023/04/20 05:49:03;;;;;;;18.58;6.45;;;;;;;;;;5052295;28;20033;-46
2023/04/20 05:51:32;;;;;;;14.93;5.88;;;;;;;;;;5052233;28;20062;-47
2023/04/20 05:54:00;;;;;;;21.50;6.47;;;;;;;;;;5052246;28;20029;-46
2023/04/20 05:56:27;;;;;;;21.30;6.60;;;;;;;;;;5052298;28;20025;-46
2023/04/20 05:58:57;;;;;;;18.80;6.55;;;;;;;;;;5052269;28;20116;-46
2023/04/20 06:01:24;;;;;;;16.38;5.97;;;;;;;;;;5050863;28;20033;-46
2023/04/20 06:03:51;;;;;;;17.00;5.82;;;;;;;;;;5051608;28;20447;-47
2023/04/20 06:06:18;;;;;;;18.98;6.82;;;;;;;;;;5052155;28;20032;-47
2023/04/20 06:08:45;;;;;;;18.20;5.78;;;;;;;;;;5052121;28;20443;-46
2023/04/20 06:11:12;;;;;;;16.95;5.88;;;;;;;;;;5052013;28;20040;-46
2023/04/20 06:13:39;;;;;;;20.25;6.13;;;;;;;;;;5052038;28;20037;-45
2023/04/20 06:16:08;;;;;;;15.73;5.35;;;;;;;;;;5051984;28;20104;-46
2023/04/20 06:18:35;;;;;;;13.90;4.85;;;;;;;;;;5051761;28;20090;-46
2023/04/20 06:21:03;;;;;;;13.52;4.93;;;;;;;;;;5051671;28;20455;-47
2023/04/20 06:23:30;;;;;;;14.13;5.30;;;;;;;;;;5051896;28;20029;-46
2023/04/20 06:25:57;;;;;;;14.30;5.45;;;;;;;;;;5051891;28;20033;-46
2023/04/20 06:28:23;;;;;;;14.38;5.78;;;;;;;;;;5051740;28;20145;-46
2023/04/20 06:30:50;;;;;;;14.20;5.03;;;;;;;;;;5051753;28;20503;-46
2023/04/20 06:33:18;;;;;;;16.40;5.55;;;;;;;;;;5051721;28;20104;-47
2023/04/20 06:35:45;;;;;;;13.68;5.35;;;;;;;;;;5051611;28;20571;-46
2023/04/20 06:38:12;;;;;;;14.20;5.18;;;;;;;;;;5051463;28;20040;-45
2023/04/20 06:40:39;;;;;;;16.83;5.28;;;;;;;;;;5051503;28;20070;-46
2023/04/20 06:43:06;;;;;;;13.45;5.03;;;;;;;;;;5051489;28;20025;-46
2023/04/20 06:45:33;;;;;;;13.00;4.95;;;;;;;;;;5051515;28;20486;-45
2023/04/20 06:48:00;;;;;;;11.18;4.43;;;;;;;;;;5051499;28;20098;-46
2023/04/20 06:50:27;;;;;;;14.38;4.93;;;;;;;;;;5051422;28;20029;-45
2023/04/20 06:52:54;;;;;;;12.35;4.78;;;;;;;;;;5051374;28;20072;-46
2023/04/20 06:55:21;;;;;;;13.35;4.85;;;;;;;;;;5051373;28;20025;-45
2023/04/20 06:57:48;;;;;;;13.70;5.28;;;;;;;;;;5051407;28;20025;-45
2023/04/20 07:00:15;;;;;;;10.82;4.40;;;;;;;;;;5051215;28;20052;-45
2023/04/20 07:02:43;;;;;;;10.30;4.35;;;;;;;;;;5051244;28;20021;-46
2023/04/20 07:05:10;;;;;;;10.63;4.18;;;;;;;;;;5050974;28;20061;-45
2023/04/20 07:07:38;;;;;;;9.32;4.13;;;;;;;;;;5051161;28;20048;-45
2023/04/20 07:10:05;;;;;;;13.10;4.43;;;;;;;;;;5051062;28;20044;-45
2023/04/20 07:12:32;;;;;;;12.95;4.68;;;;;;;;;;5051223;28;20040;-46
2023/04/20 07:14:59;;;;;;;13.52;4.72;;;;;;;;;;5051372;28;20039;-46
2023/04/20 07:17:29;;;;;;;12.05;4.40;;;;;;;;;;5051089;28;20037;-46
2023/04/20 07:19:56;;;;;;;12.85;4.20;;;;;;;;;;5051054;28;20511;-47
2023/04/20 07:22:24;;;;;;;9.13;3.55;;;;;;;;;;5050862;28;20215;-46
2023/04/20 07:24:51;;;;;;;11.02;4.05;;;;;;;;;;5051202;28;20100;-45
2023/04/20 07:27:18;;;;;;;11.13;4.20;;;;;;;;;;5051204;28;20029;-46
2023/04/20 07:29:45;;;;;;;9.32;3.90;;;;;;;;;;5051119;28;20029;-46
2023/04/20 07:32:12;;;;;;;12.15;4.55;;;;;;;;;;5051017;28;20074;-45
2023/04/20 07:34:39;;;;;;;10.32;4.10;;;;;;;;;;5050927;28;20033;-46
2023/04/20 07:37:05;;;;;;;8.95;3.75;;;;;;;;;;5051103;28;20060;-46
2023/04/20 07:39:32;;;;;;;12.70;3.80;;;;;;;;;;5051008;28;20036;-46
2023/04/20 07:41:59;;;;;;;10.20;3.75;;;;;;;;;;5050985;28;20391;-46
2023/04/20 07:44:26;;;;;;;9.73;3.85;;;;;;;;;;5050794;28;20035;-46
2023/04/20 07:46:54;;;;;;;12.05;4.22;;;;;;;;;;5053398;28;20021;-45
2023/04/20 07:49:21;;;;;;;9.57;3.58;;;;;;;;;;5054654;28;20108;-46
2023/04/20 07:51:48;;;;;;;11.88;4.00;;;;;;;;;;5054544;28;20036;-45
2023/04/20 07:54:16;;;;;;;8.38;3.28;;;;;;;;;;5054506;28;20157;-46
2023/04/20 07:56:42;;;;;;;9.45;3.30;;;;;;;;;;5054638;28;20511;-47
2023/04/20 07:59:10;;;;;;;9.15;3.38;;;;;;;;;;5054549;28;20164;-45
2023/04/20 08:01:37;;;;;;;10.38;3.70;;;;;;;;;;5054433;28;20032;-46
2023/04/20 08:04:03;;;;;;;9.75;3.85;;;;;;;;;;5054324;28;20053;-46
2023/04/20 08:06:31;;;;;;;9.07;3.58;;;;;;;;;;5054524;28;20033;-45
2023/04/20 08:08:58;;;;;;;8.30;3.40;;;;;;;;;;5054117;28;20028;-46
2023/04/20 08:11:25;;;;;;;9.65;3.10;;;;;;;;;;5054237;28;20025;-47
2023/04/20 08:13:52;;;;;;;8.48;3.50;;;;;;;;;;5054152;28;20108;-45
2023/04/20 08:16:19;;;;;;;8.70;3.60;;;;;;;;;;5054302;28;20440;-46
2023/04/20 08:18:46;;;;;;;6.53;3.05;;;;;;;;;;5054145;28;20112;-47
2023/04/20 08:21:13;;;;;;;6.70;2.92;;;;;;;;;;5054002;28;20021;-46
2023/04/20 08:23:40;;;;;;;7.43;3.35;;;;;;;;;;5054171;28;20067;-46
2023/04/20 08:26:07;;;;;;;9.50;3.15;;;;;;;;;;5054094;28;20127;-46
2023/04/20 08:28:34;;;;;;;8.00;3.50;;;;;;;;;;5054014;28;20116;-46
2023/04/20 08:31:01;;;;;;;7.18;2.80;;;;;;;;;;5053887;28;20033;-46
2023/04/20 08:33:28;;;;;;;7.43;3.20;;;;;;;;;;5053928;28;20039;-46
2023/04/20 08:35:55;;;;;;;6.20;3.00;;;;;;;;;;5053865;28;20021;-45
2023/04/20 08:38:23;;;;;;;7.03;2.72;;;;;;;;;;5053783;28;20039;-46
2023/04/20 08:40:50;;;;;;;7.82;2.88;;;;;;;;;;5053526;28;20029;-45
2023/04/20 08:43:17;;;;;;;9.93;3.20;;;;;;;;;;5053531;28;20438;-46
2023/04/20 08:45:46;;;;;;;5.45;2.65;;;;;;;;;;5053770;28;20056;-47
2023/04/20 08:48:14;;;;;;;5.97;2.60;;;;;;;;;;5053608;28;20519;-46
2023/04/20 08:50:41;;;;;;;7.85;2.55;;;;;;;;;;5053613;28;20036;-46
2023/04/20 08:53:08;;;;;;;4.97;2.78;;;;;;;;;;5053785;28;20075;-45
2023/04/20 08:55:36;;;;;;;7.95;2.88;;;;;;;;;;5053370;28;20047;-46
2023/04/20 08:58:03;;;;;;;6.40;2.40;;;;;;;;;;5052355;28;20032;-46
2023/04/20 09:00:30;;;;;;;6.68;2.85;;;;;;;;;;5053469;28;20032;-46
2023/04/20 09:03:00;;;;;;;7.35;2.78;;;;;;;;;;5053415;28;20025;-45
2023/04/20 09:05:32;;;;;;;6.80;2.63;;;;;;;;;;5053223;28;20164;-47
2023/04/20 09:08:00;;;;;;;6.68;2.53;;;;;;;;;;5061200;28;20032;-46
2023/04/20 09:10:38;;;;;;;7.07;2.45;;;;;;;;;;5073296;28;20102;-46
2023/04/20 09:13:05;;;;;;;6.03;2.53;;;;;;;;;;5073235;28;20036;-45
2023/04/20 09:15:32;;;;;;;5.13;2.28;;;;;;;;;;5073113;28;20103;-46
2023/04/20 09:17:59;;;;;;;6.18;2.40;;;;;;;;;;5073150;28;20064;-46
2023/04/20 09:20:33;;;;;;;5.10;2.22;;;;;;;;;;5072933;28;20037;-45
2023/04/20 09:23:13;;;;;;;7.45;2.65;;;;;;;;;;5073043;28;20020;-46
2023/04/20 09:25:42;;;;;;;4.60;2.22;;;;;;;;;;5072930;28;20051;-45
2023/04/20 09:28:10;;;;;;;6.07;2.50;;;;;;;;;;5072787;28;20486;-46
2023/04/20 09:30:38;;;;;;;6.10;2.35;;;;;;;;;;5072572;28;20040;-45
2023/04/20 09:33:10;;;;;;;6.57;2.23;;;;;;;;;;5072947;28;20052;-45
2023/04/20 09:35:39;;;;;;;6.60;2.42;;;;;;;;;;5072572;28;20435;-45
2023/04/20 09:38:07;;;;;;;5.22;2.47;;;;;;;;;;5072478;28;20052;-46
2023/04/20 09:40:34;;;;;;;6.65;2.28;;;;;;;;;;5072276;28;20043;-47
2023/04/20 09:43:03;;;;;;;5.78;2.30;;;;;;;;;;5072436;28;20036;-46
2023/04/20 09:45:31;;;;;;;5.60;2.10;;;;;;;;;;5072598;28;20021;-45
2023/04/20 09:47:58;;;;;;;5.10;2.03;;;;;;;;;;5072481;28;20394;-47
2023/04/20 09:50:25;;;;;;;5.85;2.10;;;;;;;;;;5072396;28;20398;-46
2023/04/20 09:52:53;;;;;;;7.03;2.25;;;;;;;;;;5072276;28;20020;-46
2023/04/20 09:55:20;;;;;;;5.68;2.22;;;;;;;;;;5068703;28;20067;-46
2023/04/20 09:57:51;;;;;;;10.88;2.25;;;;;;;;;;5061035;28;20047;-45
2023/04/20 10:00:19;;;;;;;;;;;;;;;;;;5051836;28;20120;-46
2023/04/20 10:02:50;;;;;;;8.27;2.45;;;;;;;;;;5051868;28;20433;-46
2023/04/20 10:05:22;;;;;;;6.85;2.08;;;;;;;;;;5051876;28;20055;-46
2023/04/20 10:08:00;;;;;;;7.22;2.10;;;;;;;;;;5052116;28;20040;-45
2023/04/20 10:10:27;;;;;;;4.75;2.13;;;;;;;;;;5051664;28;20032;-46
2023/04/20 10:12:55;;;;;;;4.68;2.38;;;;;;;;;;5052031;28;20052;-46
2023/04/20 10:15:23;;;;;;;4.88;1.90;;;;;;;;;;5056950;28;20040;-46
2023/04/20 10:17:50;;;;;;;6.90;1.85;;;;;;;;;;5071913;28;20036;-46
2023/04/20 10:20:27;;;;;;;4.28;1.92;;;;;;;;;;5071024;28;20071;-45
2023/04/20 10:22:54;;;;;;;4.25;1.75;;;;;;;;;;5051450;28;20546;-46
2023/04/20 10:25:26;;;;;;;4.38;1.60;;;;;;;;;;5056002;28;20025;-46
2023/04/20 10:27:58;;;;;;;4.97;1.83;;;;;;;;;;5061547;28;20441;-47
2023/04/20 10:30:26;;;;;;;5.88;2.25;;;;;;;;;;5061000;28;20083;-45
2023/04/20 10:33:04;;;;;;;5.05;1.60;;;;;;;;;;5059554;28;20096;-48
2023/04/20 10:35:41;;;;;;;4.22;1.63;;;;;;;;;;5061438;28;20524;-46
2023/04/20 10:38:10;;;;;;;6.07;1.90;;;;;;;;;;5061139;28;20024;-46
2023/04/20 10:40:37;;;;;;;5.93;1.70;;;;;;;;;;5061080;28;20028;-46
2023/04/20 10:43:04;;;;;;;4.20;1.90;;;;;;;;;;5059033;28;20397;-46
2023/04/20 10:45:39;;;;;;;5.47;1.50;;;;;;;;;;5060479;28;20025;-47
2023/04/20 10:48:09;;;;;;;4.80;1.90;;;;;;;;;;5056112;28;20048;-46
2023/04/20 10:50:36;;;;;;;3.35;1.63;;;;;;;;;;5055508;28;20055;-46
2023/04/20 10:53:04;;;;;;;5.28;1.92;;;;;;;;;;5071243;28;20028;-45
2023/04/20 10:55:31;;;;;;;4.97;2.00;;;;;;;;;;5063326;28;20040;-47
2023/04/20 10:58:01;;;;;;;12.98;1.60;;;;;;;;;;5052581;28;20112;-48
2023/04/20 11:00:29;;;;;;;6.88;1.70;;;;;;;;;;5056018;28;20488;-45
2023/04/20 11:02:57;;;;;;;9.95;2.33;;;;;;;;;;5050610;28;20037;-46
2023/04/20 11:05:25;;;;;;;10.32;2.10;;;;;;;;;;5048860;28;20064;-44
2023/04/20 11:07:56;;;;;;;6.90;1.70;;;;;;;;;;5050421;28;20487;-47
2023/04/20 11:10:25;;;;;;;9.02;2.10;;;;;;;;;;5051153;28;20483;-49
2023/04/20 11:12:52;;;;;;;9.45;2.15;;;;;;;;;;5059650;28;20383;-46
2023/04/20 11:15:19;;;;;;;6.85;1.60;;;;;;;;;;5062100;28;20040;-47
2023/04/20 11:17:46;;;;;;;6.93;1.80;;;;;;;;;;5058662;28;20502;-46
2023/04/20 11:20:17;;;;;;;7.35;1.83;;;;;;;;;;5064954;28;20032;-44
2023/04/20 11:22:44;;;;;;;13.45;2.10;;;;;;;;;;5074607;28;20040;-44
2023/04/20 11:25:12;;;;;;;5.70;1.60;;;;;;;;;;5074942;28;20041;-44
2023/04/20 11:27:40;;;;;;;9.77;1.83;;;;;;;;;;5072933;28;20074;-45
2023/04/20 11:30:07;;;;;;;6.95;1.73;;;;;;;;;;5074433;28;20502;-45
2023/04/20 11:32:35;;;;;;;6.07;1.60;;;;;;;;;;5068146;28;20435;-46
2023/04/20 11:35:12;;;;;;;7.40;1.70;;;;;;;;;;5063553;28;20039;-46
2023/04/20 11:37:49;;;;;;;9.27;1.60;;;;;;;;;;5060909;28;20547;-46
2023/04/20 11:40:17;;;;;;;5.00;1.45;;;;;;;;;;5061398;28;20040;-48
2023/04/20 11:42:45;;;;;;;9.38;1.98;;;;;;;;;;5055582;28;20107;-46
2023/04/20 11:45:12;;;;;;;9.45;1.70;;;;;;;;;;5054612;28;20570;-47
2023/04/20 11:47:39;;;;;;;8.57;1.58;;;;;;;;;;5054518;28;20079;-47
2023/04/20 11:50:07;;;;;;;4.00;1.75;;;;;;;;;;5052695;28;20090;-49
2023/04/20 11:52:34;;;;;;;6.72;1.70;;;;;;;;;;5054412;28;20040;-45
2023/04/20 11:55:01;;;;;;;8.05;1.40;;;;;;;;;;5054437;28;20048;-46
2023/04/20 11:57:28;;;;;;;5.82;1.45;;;;;;;;;;5054525;28;20075;-46
2023/04/20 11:59:55;;;;;;;8.63;1.80;;;;;;;;;;5061455;28;20441;-45
2023/04/20 12:02:22;;;;;;;8.68;1.90;;;;;;;;;;5073464;28;20035;-45
2023/04/20 12:04:49;;;;;;;5.38;1.20;;;;;;;;;;5074026;28;20063;-45
2023/04/20 12:07:16;;;;;;;5.15;1.70;;;;;;;;;;5074346;28;20482;-45
2023/04/20 12:09:43;;;;;;;6.70;1.88;;;;;;;;;;5072838;28;20036;-47
2023/04/20 12:12:10;;;;;;;7.30;1.55;;;;;;;;;;5073399;28;20021;-46
2023/04/20 12:14:37;;;;;;;6.45;1.55;;;;;;;;;;5073067;28;20097;-45
2023/04/20 12:17:07;;;;;;;11.13;1.80;;;;;;;;;;5070947;28;20119;-47
2023/04/20 12:19:35;;;;;;;6.72;1.60;;;;;;;;;;5065311;28;20059;-46
2023/04/20 12:22:02;;;;;;;7.93;2.00;;;;;;;;;;5066905;28;20090;-46
2023/04/20 12:24:29;;;;;;;6.00;1.35;;;;;;;;;;5073107;28;20130;-47
2023/04/20 12:26:56;;;;;;;9.05;1.52;;;;;;;;;;5070795;28;20029;-47
2023/04/20 12:29:23;;;;;;;9.30;1.95;;;;;;;;;;5073745;28;20028;-48
2023/04/20 12:31:50;;;;;;;6.07;1.35;;;;;;;;;;5073743;28;20032;-46
2023/04/20 12:34:18;;;;;;;8.90;1.35;;;;;;;;;;5073817;28;20099;-46
2023/04/20 12:36:44;;;;;;;5.18;1.35;;;;;;;;;;5074006;28;20033;-47
2023/04/20 12:39:12;;;;;;;6.00;1.48;;;;;;;;;;5073739;28;20045;-46
2023/04/20 12:41:41;;;;;;;6.93;1.85;;;;;;;;;;5073541;28;20040;-47
2023/04/20 12:44:09;;;;;;;5.28;1.25;;;;;;;;;;5055763;28;20029;-47
2023/04/20 12:46:36;;;;;;;9.13;1.50;;;;;;;;;;5055736;28;20034;-46
2023/04/20 12:49:03;;;;;;;6.07;1.20;;;;;;;;;;5073653;28;20036;-49
2023/04/20 12:51:31;;;;;;;5.60;1.27;;;;;;;;;;5073693;28;20103;-46
2023/04/20 12:53:57;;;;;;;5.55;1.52;;;;;;;;;;5073388;28;20115;-46
2023/04/20 12:56:24;;;;;;;7.10;1.23;;;;;;;;;;5073457;28;20406;-47
2023/04/20 12:58:51;;;;;;;7.35;1.45;;;;;;;;;;5073541;28;20032;-46
2023/04/20 13:01:18;;;;;;;4.57;1.65;;;;;;;;;;5073420;28;20025;-46
2023/04/20 13:03:45;;;;;;;9.30;1.55;;;;;;;;;;5073035;28;20082;-46
2023/04/20 13:06:12;;;;;;;7.60;1.67;;;;;;;;;;5073320;28;20090;-46
2023/04/20 13:08:39;;;;;;;13.88;1.85;;;;;;;;;;5073360;28;20558;-48
2023/04/20 13:11:06;;;;;;;6.85;1.55;;;;;;;;;;5073158;28;20024;-47
2023/04/20 13:13:33;;;;;;;7.18;1.48;;;;;;;;;;5073146;28;20082;-47
2023/04/20 13:16:00;;;;;;;7.85;1.20;;;;;;;;;;5073104;28;20437;-46
2023/04/20 13:18:27;;;;;;;5.57;1.20;;;;;;;;;;5066273;28;20474;-47
2023/04/20 13:20:54;;;;;;;11.02;1.75;;;;;;;;;;5043430;28;20440;-46
2023/04/20 13:23:20;;;;;;;5.85;1.52;;;;;;;;;;5062428;28;20028;-47
2023/04/20 13:25:48;;;;;;;6.28;1.65;;;;;;;;;;5063129;28;20104;-48
2023/04/20 13:28:15;;;;;;;6.95;1.35;;;;;;;;;;5063166;28;20490;-47
2023/04/20 13:30:42;;;;;;;8.85;1.55;;;;;;;;;;5072924;28;20474;-46
2023/04/20 13:33:09;;;;;;;6.78;1.48;;;;;;;;;;5072702;28;20079;-48
2023/04/20 13:35:37;;;;;;;8.10;1.55;;;;;;;;;;5072792;28;20029;-47
2023/04/20 13:38:04;;;;;;;7.43;1.48;;;;;;;;;;5072555;28;20032;-47
2023/04/20 13:40:31;;;;;;;4.97;1.30;;;;;;;;;;5071553;28;20029;-47
2023/04/20 13:42:58;;;;;;;10.73;1.60;;;;;;;;;;5072234;28;20395;-47
2023/04/20 13:45:26;;;;;;;10.50;1.63;;;;;;;;;;5065895;28;20115;-46
2023/04/20 13:47:54;;;;;;;12.63;1.30;;;;;;;;;;5072261;28;20029;-47
2023/04/20 13:50:21;;;;;;;10.40;1.58;;;;;;;;;;5072195;28;20032;-47
2023/04/20 13:52:47;;;;;;;7.80;1.65;;;;;;;;;;5068552;28;20079;-49
2023/04/20 13:55:15;;;;;;;9.57;1.40;;;;;;;;;;5053989;28;20075;-50
2023/04/20 13:57:42;;;;;;;13.95;1.50;;;;;;;;;;5072121;28;20078;-46
2023/04/20 14:00:09;;;;;;;9.80;1.55;;;;;;;;;;5068826;28;20040;-47
2023/04/20 14:02:36;;;;;;;9.38;1.63;;;;;;;;;;5072130;28;20051;-47
2023/04/20 14:05:05;;;;;;;10.40;1.40;;;;;;;;;;5063084;28;20123;-47
2023/04/20 14:07:32;;;;;;;14.65;1.70;;;;;;;;;;5051937;28;20029;-47
2023/04/20 14:09:59;;;;;;;15.55;1.40;;;;;;;;;;5051969;28;20085;-47
2023/04/20 14:12:27;;;;;;;15.73;1.55;;;;;;;;;;5061391;28;20032;-48
2023/04/20 14:14:58;;;;;;;15.30;1.80;;;;;;;;;;5071523;28;20040;-47
2023/04/20 14:17:25;;;;;;;7.18;1.50;;;;;;;;;;5066903;28;20529;-47
2023/04/20 14:19:52;;;;;;;11.05;1.65;;;;;;;;;;5054189;28;20036;-47
2023/04/20 14:22:19;;;;;;;21.30;1.60;;;;;;;;;;5051803;28;20025;-48
2023/04/20 14:24:47;;;;;;;16.75;1.90;;;;;;;;;;5051536;28;20028;-48
2023/04/20 14:27:14;;;;;;;12.00;1.65;;;;;;;;;;5051703;28;20033;-47
2023/04/20 14:29:41;;;;;;;11.77;2.05;;;;;;;;;;5051864;28;20079;-49
2023/04/20 14:32:08;;;;;;;19.38;1.92;;;;;;;;;;5051624;28;20487;-48
2023/04/20 14:34:35;;;;;;;18.35;2.25;;;;;;;;;;5062565;28;20475;-49